OICI  Ilam Airport

Add Bookmark

Ilam, Iran

Status IATA
Operational IIL
Latitude Longitude
33° 35' 11" N 46° 24' 17" E
33.586601 46.404800
Local (DST + 5) UTC (GMT + 4)
Oct 23, 2014 02:32 Oct 22, 2014 23:02
Sunrise-Sunset Local UTC
Begin Civil Twilight 06:09 02:39
Sunrise 06:34 03:04
Sunset 05:42 14:12
End Civil Twilight 06:08 14:38

Current Weather

METAR Observed VFR
OICI 222200Z 12006KT CAVOK 08/06 Q1023 A3021 Wed, Oct 22, 2014 @ 22:00 UTC
(1 Hour, 2 Minutes ago)
Visual Flight Rules
Wind Visibility Clouds Conditions
120° at 6 knots (11 kph) 10 km or more
  • Clear skies
  • No significant weather
Temperatures Readings Precipitation
Current Temp 8°C (46°F)
Dewpoint 6°C (43°F)
Humidity 87%
Altimeter 30.21"Hg
Sea Level Pressure 1023mb
Field Elevation 4406.17'
None Recorded

Additional weather within a 185.2km radius of OICI

Map ICAO Location
OIGK 101.5km N (040°)
OICC 109.3km N (039°)
OICK 174.8km E (095°)

24 Hour Weather History

Loading
-

24 Hour Weather Graphs

Loading
-

CheckWX.com is intended as a tool to help pilots better visualize weather data. It is not intended as a substitute for an official weather briefing obtained from a Flight Service Station. CheckWX.com does not meet the FAA requirements for an official pre-flight weather briefing. Therefore, it's important that pilots still call and obtain an official FSS pre-flight weather briefing.